Middelfart, Denmark
Current Conditions -  °F | °C
As of 2:20 PM on Monday 22 Dec 2014 (Local Time) from EKSP Reporting Station
Broken Clouds Broken Clouds  
Wind Chill: 40°   Ceiling: 5500
Heat Index: 46°   Visibility: 6mi
Dew Point: 43°   Wind: 16mph
Humidity: 87%   Direction: 250°WSW
Pressure: 29.59"   Gusts: NA
Location:  55.51°N, 9.73°E
Report Text: EKSP 221320Z 25014KT 9999 FEW012 BKN055 08/06 Q1002 NOSIG
Loading
Personal Weather Stations






























Interactive Weather Map New forecast layout! Learn more

10-Day Weather Forecast

Advertisements
Track Severe Weather on mobile